Pekan, Malaysia
Current Conditions -  °F | °C
As of 2:00 PM on Saturday 20 Dec 2014 (Local Time) from WMKD Reporting Station
Broken Clouds Broken Clouds  
Wind Chill: 88°   Ceiling: 28000
Heat Index: 102°   Visibility: 6mi
Dew Point: 79°   Wind: 7mph
Humidity: 75%   Direction: 310°NW
Pressure: 29.8"   Gusts: NA
Location:  3.5°N, 103.42°E
Report Text: WMKD 200600Z 31006KT 9999 SCT019 SCT160 BKN280 31/26 Q1009 TEMPO 6000 RA
Loading
Personal Weather Stations






























Interactive Weather Map New forecast layout! Learn more

10-Day Weather Forecast

Advertisements
Track Severe Weather on mobile